Terminal Aerodrome Forecast
Issued by NWS

Home | Current Version | Previous Version | Text Only | Print | Product List | Glossary On
Versions: 1 2 3 4 5 6 7 8 9 10 11 12 13 14
000
FTUS44 KEPZ 311100 RRA
TAFDMN
TAF
KDMN 311145Z 3112/0112 08006KT P6SM SCT005 OVC015
      TEMPO 3112/3115 2SM BR OVC005
     FM311900 17007KT 6SM -SHRA BKN020 OVC060
     FM010300 25009KT P6SM SCT020 BKN060=

USA.gov is the U.S. government's official web portal to all federal, state and local government web resources and services.